createdAt,value
2017-10-24T00:00:34.702Z,13.70
2017-10-24T00:03:02.778Z,13.60
2017-10-24T00:05:30.846Z,13.40
2017-10-24T00:07:58.919Z,13.50
2017-10-24T00:10:26.990Z,13.60
2017-10-24T00:12:55.060Z,13.90
2017-10-24T00:15:23.147Z,14.00
2017-10-24T00:17:52.743Z,14.30
2017-10-24T00:20:20.818Z,14.30
2017-10-24T00:22:49.662Z,14.40
2017-10-24T00:25:17.751Z,14.40
2017-10-24T00:27:45.873Z,14.50
2017-10-24T00:30:13.922Z,14.60
2017-10-24T00:32:41.991Z,14.70
2017-10-24T00:35:10.072Z,14.60
2017-10-24T00:37:38.140Z,14.70
2017-10-24T00:40:06.203Z,14.70
2017-10-24T00:42:35.066Z,14.80
2017-10-24T00:45:03.135Z,14.80
2017-10-24T00:47:31.220Z,14.80
2017-10-24T00:49:59.291Z,14.80
2017-10-24T00:52:27.368Z,14.70
2017-10-24T00:54:55.437Z,14.60
2017-10-24T00:57:23.519Z,14.60
2017-10-24T00:59:52.356Z,14.70
2017-10-24T01:02:20.436Z,14.60
2017-10-24T01:04:48.511Z,14.60
2017-10-24T01:07:16.594Z,14.60
2017-10-24T01:09:44.671Z,14.30
2017-10-24T01:12:12.919Z,14.30
2017-10-24T01:14:40.999Z,14.40
2017-10-24T01:17:09.070Z,14.20
2017-10-24T01:19:37.153Z,14.00
2017-10-24T01:22:05.276Z,13.80
2017-10-24T01:24:34.852Z,13.70
2017-10-24T01:27:02.948Z,13.70
2017-10-24T01:29:31.791Z,13.70
2017-10-24T01:31:59.877Z,13.60
2017-10-24T01:34:27.937Z,13.70
2017-10-24T01:36:56.005Z,13.70
2017-10-24T01:39:24.092Z,13.80
2017-10-24T01:41:52.166Z,13.80
2017-10-24T01:44:20.230Z,13.80
2017-10-24T01:46:48.311Z,13.80
2017-10-24T01:49:16.373Z,13.80
2017-10-24T01:51:44.465Z,13.80
2017-10-24T01:54:12.557Z,13.80
2017-10-24T01:56:40.615Z,14.00
2017-10-24T01:59:08.700Z,14.00
2017-10-24T02:01:37.393Z,14.10
2017-10-24T02:04:05.474Z,14.10
2017-10-24T02:06:34.315Z,13.90
2017-10-24T02:09:02.388Z,13.80
2017-10-24T02:11:30.455Z,13.90
2017-10-24T02:13:58.526Z,14.00
2017-10-24T02:16:26.603Z,14.00
2017-10-24T02:18:54.658Z,14.20
2017-10-24T02:21:22.737Z,14.30
2017-10-24T02:23:50.835Z,14.30
2017-10-24T02:26:20.043Z,14.30
2017-10-24T02:28:48.122Z,14.40
2017-10-24T02:31:16.194Z,14.30
2017-10-24T02:33:44.244Z,14.40
2017-10-24T02:36:12.316Z,14.50
2017-10-24T02:38:40.395Z,14.60
2017-10-24T02:41:08.455Z,14.50
2017-10-24T02:43:37.301Z,14.30
2017-10-24T02:46:05.370Z,14.30
2017-10-24T02:48:33.503Z,14.50
2017-10-24T02:51:01.540Z,14.50
2017-10-24T02:53:29.646Z,14.50
2017-10-24T02:55:58.516Z,14.40
2017-10-24T02:58:26.574Z,14.40
2017-10-24T03:00:54.674Z,14.50
2017-10-24T03:03:22.708Z,14.50
2017-10-24T03:05:50.771Z,14.50
2017-10-24T03:08:18.827Z,14.30
2017-10-24T03:10:46.898Z,14.20
2017-10-24T03:13:15.228Z,14.30
2017-10-24T03:15:43.270Z,14.10
2017-10-24T03:18:11.332Z,14.10
2017-10-24T03:20:39.408Z,14.00
2017-10-24T03:23:07.473Z,14.10
2017-10-24T03:25:35.548Z,14.10
2017-10-24T03:28:03.617Z,14.10
2017-10-24T03:30:31.673Z,14.00
2017-10-24T03:32:59.732Z,14.10
2017-10-24T03:35:27.832Z,14.10
2017-10-24T03:37:56.648Z,14.20
2017-10-24T03:40:25.467Z,14.20
2017-10-24T03:42:53.544Z,14.10
2017-10-24T03:45:21.604Z,14.10
2017-10-24T03:47:49.664Z,13.90
2017-10-24T03:50:17.743Z,14.00
2017-10-24T03:52:45.790Z,14.10
2017-10-24T03:55:13.912Z,14.10
2017-10-24T03:57:42.751Z,14.10
2017-10-24T04:00:10.826Z,14.00
2017-10-24T04:02:38.867Z,14.00
2017-10-24T04:05:06.936Z,14.10
2017-10-24T04:07:35.019Z,14.10
2017-10-24T04:10:03.077Z,14.20
2017-10-24T04:12:31.937Z,14.40
2017-10-24T04:14:59.983Z,14.30
2017-10-24T04:17:28.059Z,14.20
2017-10-24T04:19:56.115Z,14.20
2017-10-24T04:22:24.180Z,14.30
2017-10-24T04:24:52.246Z,14.30
2017-10-24T04:27:20.323Z,14.20
2017-10-24T04:29:48.395Z,14.20
2017-10-24T04:32:16.482Z,14.10
2017-10-24T04:34:44.530Z,14.10
2017-10-24T04:37:12.615Z,14.10
2017-10-24T04:39:40.683Z,14.00
2017-10-24T04:42:08.751Z,13.90
2017-10-24T04:44:36.842Z,13.90
2017-10-24T04:47:04.902Z,14.00
2017-10-24T04:49:32.973Z,14.20
2017-10-24T04:52:01.054Z,14.20
2017-10-24T04:54:29.111Z,14.20
2017-10-24T04:56:57.171Z,14.00
2017-10-24T04:59:25.276Z,14.00
2017-10-24T05:01:53.330Z,14.00
2017-10-24T05:04:21.414Z,14.00
2017-10-24T05:06:49.519Z,13.90
2017-10-24T05:09:17.583Z,13.90
2017-10-24T05:11:45.628Z,14.00
2017-10-24T05:14:13.716Z,13.90
2017-10-24T05:16:41.799Z,13.90
2017-10-24T05:19:09.855Z,14.10
2017-10-24T05:21:37.919Z,14.10
2017-10-24T05:24:05.993Z,14.20
2017-10-24T05:26:34.052Z,14.00
2017-10-24T05:29:02.111Z,14.00
2017-10-24T05:31:30.213Z,13.90
2017-10-24T05:33:58.311Z,13.90
2017-10-24T05:36:26.392Z,13.80
2017-10-24T05:38:55.216Z,13.80
2017-10-24T05:41:23.286Z,13.80
2017-10-24T05:43:51.371Z,13.90
2017-10-24T05:46:20.165Z,13.80
2017-10-24T05:48:48.976Z,13.90
2017-10-24T05:51:17.047Z,13.90
2017-10-24T05:53:45.114Z,13.90
2017-10-24T05:56:13.169Z,13.90
2017-10-24T05:58:41.247Z,14.10
2017-10-24T06:01:09.362Z,14.10
2017-10-24T06:03:37.430Z,14.10
2017-10-24T06:06:05.503Z,14.10
2017-10-24T06:08:33.566Z,14.00
2017-10-24T06:11:01.632Z,14.00
2017-10-24T06:13:29.743Z,14.10
2017-10-24T06:15:58.576Z,14.20
2017-10-24T06:18:26.684Z,14.10
2017-10-24T06:20:54.738Z,14.10
2017-10-24T06:23:22.803Z,14.20
2017-10-24T06:25:50.891Z,14.30
2017-10-24T06:28:18.936Z,14.30
2017-10-24T06:30:46.990Z,14.20
2017-10-24T06:33:15.076Z,14.20
2017-10-24T06:35:44.000Z,14.10
2017-10-24T06:38:16.317Z,14.40
2017-10-24T06:40:44.388Z,14.40
2017-10-24T06:43:12.447Z,14.40
2017-10-24T06:45:40.515Z,14.30
2017-10-24T06:48:08.575Z,14.30
2017-10-24T06:50:36.663Z,14.40
2017-10-24T06:53:13.198Z,14.50
2017-10-24T06:55:45.584Z,14.50
2017-10-24T06:58:13.643Z,14.50
2017-10-24T07:00:41.710Z,14.50
2017-10-24T07:03:09.787Z,14.70
2017-10-24T07:05:37.844Z,14.60
2017-10-24T07:08:05.914Z,14.70
2017-10-24T07:10:33.971Z,14.70
2017-10-24T07:13:02.044Z,14.60
2017-10-24T07:15:30.109Z,14.50
2017-10-24T07:17:58.209Z,14.50
2017-10-24T07:20:26.286Z,14.60
2017-10-24T07:22:54.355Z,14.60
2017-10-24T07:25:22.441Z,14.60
2017-10-24T07:27:50.506Z,14.70
2017-10-24T07:30:18.578Z,14.70
2017-10-24T07:32:46.657Z,14.50
2017-10-24T07:35:14.726Z,14.50
2017-10-24T07:37:42.792Z,14.50
2017-10-24T07:40:10.853Z,14.60
2017-10-24T07:42:38.934Z,14.60
2017-10-24T07:45:07.008Z,14.70
2017-10-24T07:47:35.076Z,14.70
2017-10-24T07:50:03.166Z,14.80
2017-10-24T07:52:31.226Z,15.00
2017-10-24T07:55:00.153Z,15.00
2017-10-24T07:57:28.219Z,15.10
2017-10-24T07:59:57.056Z,15.30
2017-10-24T08:02:25.111Z,15.30
2017-10-24T08:04:53.184Z,15.60
2017-10-24T08:07:21.239Z,15.70
2017-10-24T08:09:50.081Z,16.00
2017-10-24T08:12:18.150Z,15.90
2017-10-24T08:14:46.207Z,15.90
2017-10-24T08:17:14.278Z,15.70
2017-10-24T08:19:42.355Z,15.70
2017-10-24T08:22:10.583Z,15.80
2017-10-24T08:24:39.624Z,15.60
2017-10-24T08:27:08.469Z,15.50
2017-10-24T08:29:37.315Z,15.60
2017-10-24T08:32:05.371Z,15.60
2017-10-24T08:34:33.445Z,15.60
2017-10-24T08:37:01.797Z,15.80
2017-10-24T08:39:30.594Z,16.10
2017-10-24T08:41:58.674Z,16.10
2017-10-24T08:44:26.867Z,16.30
2017-10-24T08:46:54.929Z,16.30
2017-10-24T08:49:23.015Z,16.20
2017-10-24T08:51:51.075Z,16.30
2017-10-24T08:54:19.158Z,16.40
2017-10-24T08:56:47.220Z,16.60
2017-10-24T08:59:15.305Z,16.70
2017-10-24T09:01:43.360Z,16.80
2017-10-24T09:04:11.897Z,16.80
2017-10-24T09:06:39.957Z,16.70
2017-10-24T09:22:36.754Z,18.20
2017-10-24T09:25:04.819Z,18.20
2017-10-24T09:27:32.891Z,18.50
2017-10-24T09:30:01.033Z,18.70
2017-10-24T09:32:31.973Z,18.70
2017-10-24T09:35:00.783Z,18.00
2017-10-24T09:37:28.831Z,18.00
2017-10-24T09:39:56.904Z,17.60
2017-10-24T09:42:24.988Z,17.40
2017-10-24T09:44:53.050Z,17.20
2017-10-24T09:47:21.132Z,17.30
2017-10-24T09:49:56.980Z,17.40
2017-10-24T09:52:25.060Z,17.60
2017-10-24T09:54:53.136Z,17.60
2017-10-24T09:57:21.196Z,17.40
2017-10-24T09:59:49.278Z,17.20
2017-10-24T10:02:17.353Z,17.20
2017-10-24T10:04:45.407Z,17.30
2017-10-24T10:07:13.564Z,17.40
2017-10-24T10:09:41.629Z,17.40
2017-10-24T10:12:10.473Z,17.20
2017-10-24T10:14:38.551Z,17.20
2017-10-24T10:17:06.702Z,17.30
2017-10-24T10:19:34.837Z,17.50
2017-10-24T10:22:05.723Z,17.90
2017-10-24T10:24:37.208Z,18.40
2017-10-24T10:27:06.039Z,19.40
2017-10-24T10:29:34.119Z,19.30
2017-10-24T10:32:02.183Z,19.80
2017-10-24T10:34:30.266Z,19.80
2017-10-24T10:36:58.332Z,19.80
2017-10-24T10:39:26.383Z,19.50
2017-10-24T10:41:54.462Z,19.40
2017-10-24T10:44:22.530Z,19.50
2017-10-24T10:46:51.197Z,19.70
2017-10-24T10:49:20.014Z,19.20
2017-10-24T10:51:48.074Z,19.10
2017-10-24T10:54:16.166Z,18.70
2017-10-24T10:56:44.215Z,18.50
2017-10-24T10:59:12.292Z,18.40
2017-10-24T11:01:40.358Z,18.30
2017-10-24T11:04:08.434Z,18.20
2017-10-24T11:06:36.535Z,18.30
2017-10-24T11:09:04.577Z,18.60
2017-10-24T11:11:32.654Z,19.00
2017-10-24T11:14:00.726Z,19.70
2017-10-24T11:16:28.781Z,20.00
2017-10-24T11:18:56.853Z,20.00
2017-10-24T11:21:24.916Z,20.10
2017-10-24T11:23:52.993Z,20.50
2017-10-24T11:26:21.056Z,20.70
2017-10-24T11:28:49.116Z,20.90
2017-10-24T11:31:17.217Z,21.20
2017-10-24T11:33:45.319Z,21.00
2017-10-24T11:36:13.385Z,21.50
2017-10-24T11:38:41.462Z,22.00
2017-10-24T11:41:09.513Z,22.50
2017-10-24T11:43:37.596Z,24.30
2017-10-24T11:46:05.664Z,26.00
2017-10-24T11:48:33.743Z,25.80
2017-10-24T11:51:01.838Z,23.70
2017-10-24T11:53:29.875Z,22.50
2017-10-24T11:55:57.966Z,21.60
2017-10-24T11:58:26.004Z,20.80
2017-10-24T12:00:54.095Z,20.20
2017-10-24T12:03:22.167Z,19.70
2017-10-24T12:05:50.243Z,19.40
2017-10-24T12:08:18.318Z,19.00
2017-10-24T12:10:46.385Z,18.80
2017-10-24T12:13:14.467Z,18.60
2017-10-24T12:15:43.331Z,18.40
2017-10-24T12:18:11.720Z,18.40
2017-10-24T12:20:39.794Z,18.40
2017-10-24T12:23:07.866Z,18.20
2017-10-24T12:25:36.957Z,18.00
2017-10-24T12:28:05.039Z,17.90
2017-10-24T12:30:33.098Z,17.90
2017-10-24T12:33:02.709Z,17.90
2017-10-24T12:35:30.780Z,17.90
2017-10-24T12:37:58.834Z,17.90
2017-10-24T12:40:26.895Z,17.90
2017-10-24T12:42:58.110Z,17.90
2017-10-24T12:45:26.919Z,17.90
2017-10-24T12:47:55.011Z,17.90
2017-10-24T13:03:46.672Z,17.90
2017-10-24T13:06:15.481Z,17.90
2017-10-24T13:08:43.552Z,17.90
2017-10-24T13:11:11.639Z,17.90
2017-10-24T13:13:40.563Z,17.60
2017-10-24T13:16:09.384Z,17.50
2017-10-24T13:18:37.419Z,17.40
2017-10-24T13:21:05.498Z,17.40
2017-10-24T13:23:33.549Z,17.40
2017-10-24T13:26:01.628Z,17.50
2017-10-24T13:28:29.706Z,17.60
2017-10-24T13:30:57.760Z,17.60
2017-10-24T13:33:25.854Z,17.50
2017-10-24T13:35:53.917Z,17.50
2017-10-24T13:38:21.983Z,17.50
2017-10-24T13:40:50.054Z,17.50
2017-10-24T13:43:18.168Z,17.50
2017-10-24T13:45:46.214Z,17.50
2017-10-24T13:48:14.280Z,17.50
2017-10-24T13:50:42.351Z,17.40
2017-10-24T13:53:10.440Z,17.30
2017-10-24T13:55:38.499Z,17.40
2017-10-24T13:58:06.561Z,17.50
2017-10-24T14:00:34.642Z,17.50
2017-10-24T14:03:07.524Z,17.60
2017-10-24T14:05:41.326Z,17.60
2017-10-24T14:08:15.070Z,17.40
2017-10-24T14:10:43.143Z,17.30
2017-10-24T14:13:11.216Z,17.30
2017-10-24T14:15:39.295Z,17.30
2017-10-24T14:18:07.367Z,17.40
2017-10-24T14:20:35.433Z,17.40
2017-10-24T14:23:03.524Z,17.40
2017-10-24T14:25:31.594Z,17.40
2017-10-24T14:27:59.654Z,17.20
2017-10-24T14:30:27.718Z,17.30
2017-10-24T14:32:55.819Z,17.30
2017-10-24T14:35:23.908Z,17.30
2017-10-24T14:37:51.958Z,17.40
2017-10-24T14:40:20.020Z,17.40
2017-10-24T14:55:42.512Z,17.60
2017-10-24T14:58:10.879Z,17.60
2017-10-24T15:00:46.700Z,17.60
2017-10-24T15:03:19.940Z,17.30
2017-10-24T15:08:30.217Z,17.20
2017-10-24T15:11:02.993Z,16.90
2017-10-24T15:13:34.289Z,16.90
2017-10-24T15:16:05.806Z,16.70
2017-10-24T15:18:35.028Z,16.60
2017-10-24T15:34:05.722Z,16.10
2017-10-24T15:36:50.821Z,16.00
2017-10-24T15:39:27.102Z,16.20
2017-10-24T15:42:01.025Z,16.40
2017-10-24T15:44:33.910Z,16.30
2017-10-24T15:47:07.561Z,16.40
2017-10-24T15:49:38.074Z,16.40
2017-10-24T15:52:08.682Z,16.30
2017-10-24T15:54:48.500Z,16.50
2017-10-24T15:57:19.032Z,16.50
2017-10-24T15:59:48.847Z,16.40
2017-10-24T16:02:18.570Z,16.40
2017-10-24T16:04:47.896Z,16.30
2017-10-24T16:07:17.382Z,16.40
2017-10-24T16:09:45.505Z,16.30
2017-10-24T16:12:13.746Z,16.50
2017-10-24T16:14:42.570Z,16.60
2017-10-24T16:17:10.645Z,16.50
2017-10-24T16:19:38.765Z,16.50
2017-10-24T16:22:06.806Z,16.50
2017-10-24T16:24:34.891Z,16.60
2017-10-24T16:27:02.962Z,16.70
2017-10-24T16:29:31.031Z,16.70
2017-10-24T16:31:59.104Z,16.60
2017-10-24T16:34:27.136Z,16.50
2017-10-24T16:36:55.231Z,16.40
2017-10-24T16:39:23.281Z,16.50
2017-10-24T16:41:51.346Z,16.50
2017-10-24T16:44:19.449Z,16.60
2017-10-24T16:46:47.536Z,16.70
2017-10-24T16:49:15.611Z,16.80
2017-10-24T16:51:43.715Z,16.70
2017-10-24T16:54:11.796Z,16.70
2017-10-24T16:56:39.851Z,16.70
2017-10-24T16:59:07.919Z,16.70
2017-10-24T17:01:35.987Z,16.60
2017-10-24T17:04:04.103Z,16.70
2017-10-24T17:06:32.179Z,16.70
2017-10-24T17:09:01.012Z,16.60
2017-10-24T17:11:29.869Z,16.50
2017-10-24T17:13:58.715Z,16.40
2017-10-24T17:16:26.819Z,16.40
2017-10-24T17:18:55.655Z,16.30
2017-10-24T17:21:23.726Z,16.20
2017-10-24T17:23:51.828Z,16.20
2017-10-24T17:26:19.910Z,16.00
2017-10-24T17:28:47.984Z,15.90
2017-10-24T17:31:16.071Z,15.90
2017-10-24T17:33:44.167Z,15.90
2017-10-24T17:36:12.987Z,15.90
2017-10-24T17:38:41.088Z,15.90
2017-10-24T17:41:09.296Z,15.80
2017-10-24T17:43:38.123Z,15.80
2017-10-24T17:46:06.197Z,15.80
2017-10-24T17:48:34.361Z,15.90
2017-10-24T17:51:02.443Z,16.00
2017-10-24T17:53:30.529Z,16.00
2017-10-24T17:56:10.340Z,16.00
2017-10-24T17:58:49.215Z,15.90
2017-10-24T18:01:21.418Z,15.90
2017-10-24T18:03:49.483Z,15.90
2017-10-24T18:06:17.592Z,15.90
2017-10-24T18:08:45.660Z,16.00
2017-10-24T18:11:13.732Z,15.90
2017-10-24T18:13:42.614Z,16.10
2017-10-24T18:16:10.735Z,16.10
2017-10-24T18:18:39.756Z,16.00
2017-10-24T18:21:07.902Z,16.00
2017-10-24T18:23:36.742Z,16.00
2017-10-24T18:26:04.824Z,15.90
2017-10-24T18:28:32.896Z,15.90
2017-10-24T18:31:01.012Z,16.00
2017-10-24T18:33:29.869Z,16.00
2017-10-24T18:35:58.712Z,16.00
2017-10-24T18:38:26.812Z,16.00
2017-10-24T18:40:54.895Z,16.10
2017-10-24T18:43:22.965Z,16.10
2017-10-24T18:45:51.035Z,16.10
2017-10-24T18:48:19.115Z,16.10
2017-10-24T18:50:47.193Z,16.10
2017-10-24T18:53:15.274Z,16.10
2017-10-24T18:55:44.180Z,16.10
2017-10-24T18:58:13.028Z,16.20
2017-10-24T19:00:41.161Z,16.20
2017-10-24T19:03:09.242Z,16.30
2017-10-24T19:05:37.328Z,16.30
2017-10-24T19:08:05.422Z,16.40
2017-10-24T19:10:33.504Z,16.30
2017-10-24T19:13:02.358Z,16.40
2017-10-24T19:15:30.435Z,16.30
2017-10-24T19:17:58.546Z,16.40
2017-10-24T19:20:26.616Z,16.40
2017-10-24T19:22:55.497Z,16.40
2017-10-24T19:25:23.591Z,16.30
2017-10-24T19:27:52.434Z,16.40
2017-10-24T19:30:20.827Z,16.40
2017-10-24T19:32:48.906Z,16.50
2017-10-24T19:35:17.016Z,16.50
2017-10-24T19:37:45.862Z,16.60
2017-10-24T19:40:13.947Z,16.60
2017-10-24T19:42:42.805Z,16.60
2017-10-24T19:45:10.888Z,16.60
2017-10-24T19:47:39.004Z,16.60
2017-10-24T19:50:09.740Z,16.60
2017-10-24T19:52:38.336Z,16.60
2017-10-24T19:55:07.486Z,16.60
2017-10-24T19:57:41.395Z,16.50
2017-10-24T20:00:09.484Z,16.50
2017-10-24T20:02:37.551Z,16.50
2017-10-24T20:05:05.671Z,16.60
2017-10-24T20:07:33.706Z,16.60
2017-10-24T20:10:01.818Z,16.70
2017-10-24T20:12:30.667Z,16.60
2017-10-24T20:14:58.754Z,16.60
2017-10-24T20:17:27.628Z,16.60
2017-10-24T20:19:55.703Z,16.60
2017-10-24T20:22:23.780Z,16.50
2017-10-24T20:24:51.878Z,16.50
2017-10-24T20:27:20.766Z,16.80
2017-10-24T20:29:49.612Z,16.70
2017-10-24T20:32:17.693Z,16.70
2017-10-24T20:37:20.231Z,16.70
2017-10-24T20:39:48.319Z,16.80
2017-10-24T20:42:16.378Z,16.90
2017-10-24T20:44:44.453Z,17.00
2017-10-24T20:47:12.559Z,17.00
2017-10-24T20:49:40.676Z,17.00
2017-10-24T20:52:09.536Z,16.90
2017-10-24T20:54:37.619Z,16.80
2017-10-24T20:57:05.723Z,16.90
2017-10-24T20:59:33.785Z,16.90
2017-10-24T21:02:01.848Z,16.90
2017-10-24T21:04:29.941Z,17.00
2017-10-24T21:06:58.787Z,17.00
2017-10-24T21:09:26.893Z,17.00
2017-10-24T21:11:54.948Z,17.00
2017-10-24T21:14:23.042Z,17.00
2017-10-24T21:16:51.879Z,17.30
2017-10-24T21:19:19.995Z,17.20
2017-10-24T21:21:48.065Z,17.40
2017-10-24T21:24:16.903Z,17.20
2017-10-24T21:26:44.982Z,17.20
2017-10-24T21:29:13.075Z,17.30
2017-10-24T21:31:41.249Z,17.30
2017-10-24T21:34:09.313Z,17.40
2017-10-24T21:36:37.387Z,17.40
2017-10-24T21:39:05.456Z,17.40
2017-10-24T21:41:33.551Z,17.40
2017-10-24T21:44:02.384Z,17.20
2017-10-24T21:46:31.670Z,17.10
2017-10-24T21:48:59.766Z,17.10
2017-10-24T21:51:27.848Z,17.10
2017-10-24T21:53:55.928Z,17.00
2017-10-24T21:56:24.765Z,17.10
2017-10-24T21:58:52.884Z,17.10
2017-10-24T22:01:21.775Z,17.20
2017-10-24T22:03:49.819Z,17.20
2017-10-24T22:06:17.885Z,17.20
2017-10-24T22:08:45.963Z,17.20
2017-10-24T22:11:14.790Z,17.20
2017-10-24T22:13:42.867Z,17.20
2017-10-24T22:16:10.984Z,17.20
2017-10-24T22:18:39.027Z,17.20
2017-10-24T22:21:07.162Z,17.20
2017-10-24T22:23:35.239Z,17.30
2017-10-24T22:26:03.327Z,17.30
2017-10-24T22:28:31.391Z,17.30
2017-10-24T22:30:59.459Z,17.30
2017-10-24T22:33:27.625Z,17.30
2017-10-24T22:35:55.703Z,17.40
2017-10-24T22:38:23.764Z,17.40
2017-10-24T22:40:51.855Z,17.40
2017-10-24T22:43:19.919Z,17.40
2017-10-24T22:45:47.982Z,17.40
2017-10-24T22:48:16.050Z,17.30
2017-10-24T22:50:44.176Z,17.20
2017-10-24T22:53:12.247Z,17.20
2017-10-24T22:55:40.305Z,17.20
2017-10-24T22:58:08.423Z,17.20
2017-10-24T23:00:36.510Z,17.20
2017-10-24T23:03:05.361Z,17.20
2017-10-24T23:05:33.420Z,17.10
2017-10-24T23:08:01.500Z,17.20
2017-10-24T23:10:30.000Z,17.10
2017-10-24T23:12:58.810Z,17.00
2017-10-24T23:15:27.655Z,17.00
2017-10-24T23:17:55.733Z,17.00
2017-10-24T23:20:25.311Z,17.00
2017-10-24T23:22:53.383Z,17.00
2017-10-24T23:25:21.452Z,17.00
2017-10-24T23:27:49.514Z,16.90
2017-10-24T23:30:18.086Z,17.00
2017-10-24T23:32:46.155Z,17.00
2017-10-24T23:35:14.224Z,17.10
2017-10-24T23:37:42.295Z,17.00
2017-10-24T23:40:10.356Z,17.10
2017-10-24T23:42:38.434Z,17.20
2017-10-24T23:45:06.511Z,17.10
2017-10-24T23:47:34.576Z,17.20
2017-10-24T23:50:02.641Z,17.20
2017-10-24T23:52:30.729Z,17.20
2017-10-24T23:54:58.804Z,17.20
2017-10-24T23:57:26.907Z,17.20
2017-10-24T23:59:54.966Z,17.20
